createdAt,value
2022-12-08T00:02:06.300Z,2.95
2022-12-08T00:04:54.767Z,2.72
2022-12-08T00:07:36.967Z,2.80
2022-12-08T00:10:25.164Z,2.60
2022-12-08T00:12:54.186Z,2.80
2022-12-08T00:15:23.811Z,2.30
2022-12-08T00:17:52.075Z,2.05
2022-12-08T00:20:20.428Z,2.65
2022-12-08T00:22:48.743Z,3.00
2022-12-08T00:25:17.196Z,2.67
2022-12-08T00:27:45.668Z,2.55
2022-12-08T00:30:14.532Z,2.80
2022-12-08T00:32:44.709Z,1.85
2022-12-08T00:35:13.032Z,2.25
2022-12-08T00:37:41.366Z,2.20
2022-12-08T00:40:11.338Z,1.90
2022-12-08T00:42:39.656Z,2.83
2022-12-08T00:45:08.813Z,2.80
2022-12-08T00:47:37.131Z,2.13
2022-12-08T00:50:08.175Z,2.38
2022-12-08T00:52:36.593Z,2.35
2022-12-08T00:55:05.621Z,2.65
2022-12-08T00:57:34.282Z,1.98
2022-12-08T01:00:02.920Z,1.75
2022-12-08T01:02:33.326Z,2.90
2022-12-08T01:05:01.709Z,2.30
2022-12-08T01:07:31.394Z,2.13
2022-12-08T01:09:59.770Z,2.30
2022-12-08T01:12:30.216Z,2.00
2022-12-08T01:15:02.278Z,2.60
2022-12-08T01:17:34.168Z,2.33
2022-12-08T01:20:03.533Z,2.35
2022-12-08T01:22:35.177Z,2.20
2022-12-08T01:25:03.596Z,1.88
2022-12-08T01:27:32.017Z,2.60
2022-12-08T01:30:00.599Z,2.67
2022-12-08T01:32:29.088Z,2.10
2022-12-08T01:34:57.402Z,2.20
2022-12-08T01:37:25.690Z,2.28
2022-12-08T01:39:55.388Z,2.60
2022-12-08T01:42:24.936Z,2.30
2022-12-08T01:45:02.790Z,2.20
2022-12-08T01:47:37.497Z,2.60
2022-12-08T01:50:09.842Z,2.20
2022-12-08T01:52:42.179Z,2.50
2022-12-08T01:55:16.620Z,1.95
2022-12-08T01:57:48.475Z,2.60
2022-12-08T02:00:19.045Z,2.30
2022-12-08T02:02:55.353Z,2.78
2022-12-08T02:05:27.886Z,2.13
2022-12-08T02:07:57.361Z,2.20
2022-12-08T02:10:31.272Z,2.30
2022-12-08T02:13:01.589Z,2.33
2022-12-08T02:15:39.831Z,2.80
2022-12-08T02:18:34.635Z,2.90
2022-12-08T02:21:07.911Z,2.88
2022-12-08T02:23:46.156Z,2.65
2022-12-08T02:26:47.253Z,3.67
2022-12-08T02:29:53.538Z,1.80
2022-12-08T02:32:47.977Z,2.50
2022-12-08T02:35:22.473Z,2.33
2022-12-08T02:37:58.598Z,2.53
2022-12-08T02:40:32.484Z,1.90
2022-12-08T02:43:08.157Z,2.13
2022-12-08T02:45:42.328Z,1.83
2022-12-08T02:48:11.412Z,2.03
2022-12-08T02:50:41.225Z,1.85
2022-12-08T02:55:47.999Z,2.42
2022-12-08T02:58:43.303Z,2.85
2022-12-08T03:01:30.963Z,2.10
2022-12-08T03:04:05.645Z,3.15
2022-12-08T03:06:43.676Z,3.05
2022-12-08T03:09:18.481Z,2.75
2022-12-08T03:11:53.569Z,1.98
2022-12-08T03:14:23.778Z,2.70
2022-12-08T03:16:56.443Z,2.65
2022-12-08T03:19:27.762Z,2.13
2022-12-08T03:22:02.989Z,3.08
2022-12-08T03:24:33.874Z,2.20
2022-12-08T03:27:05.524Z,2.10
2022-12-08T03:29:34.941Z,2.75
2022-12-08T03:32:10.385Z,1.92
2022-12-08T03:34:41.863Z,2.70
2022-12-08T03:37:11.654Z,2.17
2022-12-08T03:39:39.940Z,2.15
2022-12-08T03:42:08.409Z,2.58
2022-12-08T03:44:36.802Z,2.17
2022-12-08T03:47:06.170Z,2.58
2022-12-08T03:49:35.976Z,2.47
2022-12-08T03:52:06.821Z,2.50
2022-12-08T03:54:36.555Z,2.00
2022-12-08T03:57:05.058Z,2.70
2022-12-08T03:59:33.408Z,2.67
2022-12-08T04:02:01.816Z,2.22
2022-12-08T04:04:30.299Z,2.40
2022-12-08T04:06:58.693Z,2.10
2022-12-08T04:09:27.018Z,3.10
2022-12-08T04:11:56.699Z,2.58
2022-12-08T04:14:24.946Z,2.53
2022-12-08T04:16:53.285Z,2.83
2022-12-08T04:19:21.581Z,2.42
2022-12-08T04:21:49.843Z,2.33
2022-12-08T04:24:18.229Z,2.10
2022-12-08T04:26:46.559Z,2.47
2022-12-08T04:29:16.392Z,2.40
2022-12-08T04:31:44.790Z,3.25
2022-12-08T04:34:13.154Z,3.22
2022-12-08T04:36:41.538Z,2.38
2022-12-08T04:39:09.897Z,2.20
2022-12-08T04:41:38.210Z,2.88
2022-12-08T04:44:06.668Z,2.10
2022-12-08T04:46:41.692Z,1.80
2022-12-08T04:49:11.814Z,2.63
2022-12-08T04:51:40.100Z,4.00
2022-12-08T04:54:08.458Z,2.78
2022-12-08T04:56:36.855Z,2.80
2022-12-08T04:59:05.255Z,2.97
2022-12-08T05:01:33.672Z,2.47
2022-12-08T05:04:03.897Z,2.55
2022-12-08T05:06:32.361Z,3.00
2022-12-08T05:09:00.697Z,2.22
2022-12-08T05:11:29.004Z,2.60
2022-12-08T05:13:57.393Z,2.50
2022-12-08T05:16:25.880Z,2.40
2022-12-08T05:18:54.261Z,3.00
2022-12-08T05:21:25.014Z,2.67
2022-12-08T05:23:53.366Z,3.20
2022-12-08T05:26:21.893Z,2.40
2022-12-08T05:28:50.345Z,2.85
2022-12-08T05:31:19.337Z,2.40
2022-12-08T05:33:47.854Z,3.15
2022-12-08T05:36:17.101Z,2.40
2022-12-08T05:38:48.038Z,2.20
2022-12-08T05:41:18.997Z,2.42
2022-12-08T05:43:47.706Z,2.75
2022-12-08T05:46:17.354Z,2.00
2022-12-08T05:48:45.771Z,2.45
2022-12-08T05:51:19.722Z,2.28
2022-12-08T05:53:50.648Z,2.75
2022-12-08T05:56:19.595Z,2.80
2022-12-08T05:58:48.727Z,2.20
2022-12-08T06:01:22.053Z,2.83
2022-12-08T06:03:50.506Z,2.00
2022-12-08T06:06:19.142Z,2.60
2022-12-08T06:08:47.471Z,2.10
2022-12-08T06:11:21.664Z,2.67
2022-12-08T06:13:50.566Z,2.15
2022-12-08T06:16:19.303Z,3.53
2022-12-08T06:18:48.152Z,3.00
2022-12-08T06:21:17.389Z,2.95
2022-12-08T06:23:45.831Z,2.20
2022-12-08T06:26:15.848Z,2.63
2022-12-08T06:28:45.638Z,3.15
2022-12-08T06:31:16.244Z,2.42
2022-12-08T06:33:45.058Z,2.95
2022-12-08T06:36:14.579Z,3.30
2022-12-08T06:38:43.748Z,2.30
2022-12-08T06:41:13.475Z,2.20
2022-12-08T06:43:42.251Z,3.00
2022-12-08T06:46:16.793Z,2.65
2022-12-08T06:48:45.737Z,3.40
2022-12-08T06:51:15.987Z,3.10
2022-12-08T06:53:45.153Z,3.35
2022-12-08T06:56:14.346Z,2.58
2022-12-08T06:58:48.952Z,2.60
2022-12-08T07:01:22.799Z,2.78
2022-12-08T07:03:51.263Z,2.15
2022-12-08T07:06:24.533Z,3.50
2022-12-08T07:08:53.205Z,2.55
2022-12-08T07:11:22.713Z,2.97
2022-12-08T07:13:51.677Z,2.72
2022-12-08T07:16:24.340Z,2.30
2022-12-08T07:18:52.610Z,2.30
2022-12-08T07:21:20.848Z,2.83
2022-12-08T07:23:57.256Z,2.83
2022-12-08T07:26:27.910Z,2.58
2022-12-08T07:28:56.172Z,2.55
2022-12-08T07:31:28.506Z,2.78
2022-12-08T07:34:00.602Z,2.50
2022-12-08T07:36:28.921Z,2.30
2022-12-08T07:38:57.401Z,2.45
2022-12-08T07:41:28.485Z,2.83
2022-12-08T07:43:57.880Z,3.03
2022-12-08T07:46:28.086Z,2.88
2022-12-08T07:48:57.098Z,3.28
2022-12-08T07:51:26.083Z,2.70
2022-12-08T07:53:55.296Z,3.40
2022-12-08T07:56:24.445Z,3.13
2022-12-08T07:58:54.089Z,2.55
2022-12-08T08:01:24.913Z,2.90
2022-12-08T08:03:55.727Z,3.50
2022-12-08T08:06:24.506Z,2.85
2022-12-08T08:08:52.731Z,3.38
2022-12-08T08:11:21.975Z,2.85
2022-12-08T08:13:50.685Z,2.53
2022-12-08T08:16:20.454Z,2.65
2022-12-08T08:18:49.805Z,2.40
2022-12-08T08:21:45.027Z,2.50
2022-12-08T08:24:10.527Z,3.25
2022-12-08T08:26:38.884Z,2.78
2022-12-08T08:29:07.164Z,4.20
2022-12-08T08:31:35.588Z,2.65
2022-12-08T08:34:06.366Z,2.30
2022-12-08T08:36:36.884Z,2.63
2022-12-08T08:39:05.530Z,2.70
2022-12-08T08:41:35.422Z,2.05
2022-12-08T08:44:03.916Z,2.60
2022-12-08T08:46:33.111Z,2.60
2022-12-08T08:49:02.218Z,2.17
2022-12-08T08:51:30.511Z,2.65
2022-12-08T08:54:00.842Z,3.08
2022-12-08T08:56:29.136Z,2.75
2022-12-08T08:58:57.398Z,2.22
2022-12-08T09:01:27.585Z,2.40
2022-12-08T09:03:56.354Z,2.22
2022-12-08T09:06:25.555Z,1.90
2022-12-08T09:08:53.867Z,2.15
2022-12-08T09:11:24.016Z,2.20
2022-12-08T09:13:53.409Z,2.15
2022-12-08T09:16:22.184Z,2.40
2022-12-08T09:18:50.663Z,2.72
2022-12-08T09:21:22.815Z,3.03
2022-12-08T09:23:52.133Z,2.53
2022-12-08T09:26:22.439Z,2.22
2022-12-08T09:28:53.289Z,2.05
2022-12-08T09:31:23.238Z,2.50
2022-12-08T09:33:52.646Z,2.50
2022-12-08T09:36:21.050Z,4.97
2022-12-08T09:38:51.064Z,5.40
2022-12-08T09:41:26.551Z,4.30
2022-12-08T09:44:05.769Z,5.05
2022-12-08T09:46:36.884Z,4.50
2022-12-08T09:49:06.636Z,4.25
2022-12-08T09:51:39.091Z,4.22
2022-12-08T09:54:12.697Z,4.18
2022-12-08T09:56:41.514Z,4.22
2022-12-08T09:59:23.294Z,3.70
2022-12-08T10:01:52.771Z,4.03
2022-12-08T10:04:25.441Z,5.70
2022-12-08T10:07:04.633Z,3.90
2022-12-08T10:09:39.800Z,3.63
2022-12-08T10:12:17.214Z,3.63
2022-12-08T10:14:49.179Z,3.95
2022-12-08T10:17:24.640Z,3.50
2022-12-08T10:20:00.456Z,3.85
2022-12-08T10:22:38.751Z,3.30
2022-12-08T10:25:18.217Z,3.47
2022-12-08T10:27:49.641Z,3.47
2022-12-08T10:30:21.470Z,2.72
2022-12-08T10:32:51.217Z,3.10
2022-12-08T10:35:21.400Z,3.30
2022-12-08T10:37:58.204Z,3.50
2022-12-08T10:40:42.158Z,3.60
2022-12-08T10:43:16.786Z,3.50
2022-12-08T10:45:46.559Z,3.50
2022-12-08T10:48:18.577Z,3.00
2022-12-08T10:50:48.510Z,2.60
2022-12-08T10:53:22.429Z,3.00
2022-12-08T10:55:52.719Z,3.35
2022-12-08T10:58:26.498Z,2.85
2022-12-08T11:00:58.997Z,3.22
2022-12-08T11:03:31.307Z,3.65
2022-12-08T11:06:08.956Z,3.35
2022-12-08T11:08:50.493Z,3.38
2022-12-08T11:11:22.000Z,3.13
2022-12-08T11:13:52.882Z,3.95
2022-12-08T11:16:25.148Z,2.83
2022-12-08T11:18:58.221Z,3.10
2022-12-08T11:21:36.791Z,2.70
2022-12-08T11:24:23.476Z,2.70
2022-12-08T11:26:55.648Z,2.50
2022-12-08T11:29:26.344Z,2.75
2022-12-08T11:31:59.971Z,2.60
2022-12-08T11:34:34.982Z,3.20
2022-12-08T11:37:06.154Z,2.25
2022-12-08T11:39:37.609Z,3.00
2022-12-08T11:42:08.234Z,3.38
2022-12-08T11:44:43.545Z,2.70
2022-12-08T11:47:18.651Z,2.70
2022-12-08T11:49:50.030Z,2.70
2022-12-08T11:52:25.280Z,3.70
2022-12-08T11:54:59.222Z,3.45
2022-12-08T11:57:29.749Z,2.45
2022-12-08T11:59:59.762Z,2.85
2022-12-08T12:02:33.144Z,2.38
2022-12-08T12:05:07.110Z,2.22
2022-12-08T12:07:47.440Z,2.90
2022-12-08T12:10:33.600Z,2.40
2022-12-08T12:13:14.443Z,3.15
2022-12-08T12:16:31.009Z,2.30
2022-12-08T12:19:02.783Z,3.53
2022-12-08T12:21:36.954Z,3.15
2022-12-08T12:24:08.889Z,2.53
2022-12-08T12:26:41.663Z,2.55
2022-12-08T12:29:18.417Z,3.22
2022-12-08T12:31:53.010Z,2.45
2022-12-08T12:34:25.373Z,2.70
2022-12-08T12:36:57.772Z,4.03
2022-12-08T12:39:29.205Z,2.15
2022-12-08T12:41:59.843Z,2.50
2022-12-08T12:45:09.103Z,2.70
2022-12-08T12:47:55.556Z,2.50
2022-12-08T12:50:45.924Z,2.20
2022-12-08T12:53:49.640Z,2.25
2022-12-08T12:56:50.032Z,2.20
2022-12-08T12:59:41.029Z,2.45
2022-12-08T13:02:20.587Z,3.13
2022-12-08T13:04:58.091Z,2.42
2022-12-08T13:07:30.458Z,2.05
2022-12-08T13:10:02.415Z,2.20
2022-12-08T13:12:31.285Z,2.00
2022-12-08T13:15:06.011Z,2.35
2022-12-08T13:17:37.444Z,2.22
2022-12-08T13:20:08.208Z,2.53
2022-12-08T13:23:13.578Z,2.10
2022-12-08T13:25:54.439Z,4.13
2022-12-08T13:28:27.068Z,3.40
2022-12-08T13:31:00.474Z,3.90
2022-12-08T13:33:32.836Z,3.47
2022-12-08T13:36:22.436Z,3.10
2022-12-08T13:38:57.130Z,3.15
2022-12-08T13:41:35.794Z,3.10
2022-12-08T13:47:25.143Z,2.58
2022-12-08T13:58:33.375Z,2.45
2022-12-08T14:01:07.614Z,2.92
2022-12-08T14:04:12.397Z,3.35
2022-12-08T14:06:38.895Z,2.47
2022-12-08T14:09:12.986Z,2.42
2022-12-08T14:11:46.662Z,2.70
2022-12-08T14:14:32.678Z,2.85
2022-12-08T14:17:12.188Z,2.95
2022-12-08T14:19:43.348Z,3.03
2022-12-08T14:22:13.813Z,3.05
2022-12-08T14:24:46.332Z,2.30
2022-12-08T14:27:18.820Z,3.42
2022-12-08T14:29:49.735Z,3.08
2022-12-08T14:32:27.882Z,2.20
2022-12-08T14:34:59.008Z,2.10
2022-12-08T14:37:29.213Z,2.50
2022-12-08T14:40:02.640Z,2.40
2022-12-08T14:42:32.800Z,2.53
2022-12-08T14:45:07.689Z,2.25
2022-12-08T14:47:36.408Z,2.90
2022-12-08T14:50:07.539Z,2.40
2022-12-08T14:52:36.199Z,2.42
2022-12-08T14:55:08.792Z,2.40
2022-12-08T14:57:38.523Z,2.67
2022-12-08T15:00:12.285Z,2.47
2022-12-08T15:02:46.956Z,3.38
2022-12-08T15:05:19.020Z,3.58
2022-12-08T15:07:50.254Z,3.05
2022-12-08T15:10:29.710Z,3.67
2022-12-08T15:13:03.007Z,3.08
2022-12-08T15:15:33.060Z,2.40
2022-12-08T15:18:13.677Z,2.80
2022-12-08T15:20:44.690Z,3.17
2022-12-08T15:23:22.605Z,2.25
2022-12-08T15:25:52.056Z,2.60
2022-12-08T15:28:28.093Z,2.72
2022-12-08T15:30:58.828Z,2.60
2022-12-08T15:33:27.747Z,2.60
2022-12-08T15:35:56.256Z,2.40
2022-12-08T15:38:26.657Z,2.47
2022-12-08T15:40:58.666Z,2.53
2022-12-08T15:43:32.818Z,2.35
2022-12-08T15:46:05.531Z,2.30
2022-12-08T15:48:34.213Z,2.50
2022-12-08T15:51:08.612Z,2.63
2022-12-08T15:53:37.362Z,2.50
2022-12-08T16:17:49.160Z,2.75
2022-12-08T16:20:24.266Z,2.20
2022-12-08T16:23:07.948Z,2.15
2022-12-08T16:26:16.838Z,2.10
2022-12-08T16:31:26.236Z,2.10
2022-12-08T16:33:57.473Z,2.05
2022-12-08T16:36:53.314Z,2.15
2022-12-08T16:39:22.390Z,2.00
2022-12-08T16:42:08.986Z,2.22
2022-12-08T16:44:42.688Z,2.13
2022-12-08T16:47:24.284Z,1.80
2022-12-08T16:50:05.162Z,2.33
2022-12-08T16:52:43.637Z,1.90
2022-12-08T16:55:28.958Z,2.10
2022-12-08T16:57:57.668Z,1.95
2022-12-08T17:05:19.098Z,1.70
2022-12-08T17:08:00.149Z,1.80
2022-12-08T17:24:23.208Z,2.63
2022-12-08T17:26:52.876Z,1.90
2022-12-08T17:29:21.192Z,1.60
2022-12-08T17:31:49.749Z,1.90
2022-12-08T17:34:18.270Z,2.35
2022-12-08T17:36:46.598Z,1.90
2022-12-08T17:39:18.713Z,1.85
2022-12-08T17:41:49.259Z,2.40
2022-12-08T17:44:19.169Z,2.00
2022-12-08T17:46:52.455Z,1.85
2022-12-08T17:49:23.430Z,1.80
2022-12-08T17:51:53.688Z,1.95
2022-12-08T17:54:22.766Z,1.70
2022-12-08T17:56:52.642Z,2.05
2022-12-08T17:59:21.175Z,1.63
2022-12-08T18:01:49.817Z,1.77
2022-12-08T18:04:18.203Z,2.10
2022-12-08T18:06:46.868Z,1.83
2022-12-08T18:14:22.802Z,1.83
2022-12-08T18:17:02.177Z,2.35
2022-12-08T18:24:09.438Z,1.98
2022-12-08T18:26:37.949Z,2.97
2022-12-08T18:29:35.716Z,2.05
2022-12-08T18:32:06.634Z,2.00
2022-12-08T18:35:11.676Z,2.20
2022-12-08T18:37:40.094Z,1.90
2022-12-08T18:40:10.557Z,1.50
2022-12-08T18:42:38.920Z,2.67
2022-12-08T18:45:08.437Z,2.40
2022-12-08T18:47:41.106Z,2.00
2022-12-08T18:50:13.480Z,1.55
2022-12-08T18:52:42.341Z,1.80
2022-12-08T18:55:11.040Z,1.60
2022-12-08T18:57:41.571Z,1.73
2022-12-08T19:00:12.688Z,2.05
2022-12-08T19:02:42.753Z,1.90
2022-12-08T19:05:14.013Z,1.85
2022-12-08T19:07:43.743Z,1.63
2022-12-08T19:10:13.356Z,1.48
2022-12-08T19:12:43.475Z,1.90
2022-12-08T19:15:13.529Z,1.75
2022-12-08T19:17:44.982Z,1.85
2022-12-08T19:20:14.499Z,1.60
2022-12-08T19:22:43.099Z,1.77
2022-12-08T19:25:11.301Z,1.70
2022-12-08T19:27:42.880Z,2.30
2022-12-08T19:30:13.844Z,1.70
2022-12-08T19:32:42.255Z,1.75
2022-12-08T19:35:12.470Z,1.92
2022-12-08T19:37:41.023Z,1.63
2022-12-08T19:40:29.909Z,1.90
2022-12-08T19:43:15.645Z,1.77
2022-12-08T19:45:44.242Z,1.42
2022-12-08T19:48:14.030Z,1.77
2022-12-08T19:50:43.826Z,1.20
2022-12-08T19:53:14.548Z,1.60
2022-12-08T19:55:43.663Z,1.55
2022-12-08T19:58:12.400Z,1.60
2022-12-08T20:00:41.347Z,1.85
2022-12-08T20:03:10.257Z,1.48
2022-12-08T20:05:40.914Z,1.83
2022-12-08T20:08:10.937Z,1.67
2022-12-08T20:10:42.405Z,2.00
2022-12-08T20:13:29.346Z,1.30
2022-12-08T20:15:58.619Z,1.77
2022-12-08T20:18:30.300Z,1.80
2022-12-08T20:20:58.600Z,1.70
2022-12-08T20:23:28.389Z,2.13
2022-12-08T20:25:56.798Z,1.98
2022-12-08T20:28:25.208Z,1.70
2022-12-08T20:30:53.733Z,1.85
2022-12-08T20:33:22.067Z,1.60
2022-12-08T20:35:59.612Z,1.45
2022-12-08T20:38:29.987Z,1.65
2022-12-08T20:40:59.587Z,1.35
2022-12-08T20:43:27.923Z,2.10
2022-12-08T20:45:56.289Z,1.52
2022-12-08T20:48:24.873Z,2.28
2022-12-08T20:50:53.255Z,2.15
2022-12-08T20:53:21.963Z,1.88
2022-12-08T20:55:54.307Z,2.10
2022-12-08T20:58:22.915Z,2.22
2022-12-08T21:00:51.830Z,1.95
2022-12-08T21:03:20.414Z,2.17
2022-12-08T21:05:50.656Z,2.67
2022-12-08T21:08:20.534Z,1.90
2022-12-08T21:10:57.390Z,1.85
2022-12-08T21:13:26.160Z,1.80
2022-12-08T21:15:54.689Z,1.70
2022-12-08T21:18:25.114Z,2.05
2022-12-08T21:20:54.684Z,1.35
2022-12-08T21:23:23.023Z,2.70
2022-12-08T21:25:51.470Z,1.80
2022-12-08T21:28:23.428Z,1.58
2022-12-08T21:30:52.418Z,1.60
2022-12-08T21:33:21.205Z,1.75
2022-12-08T21:35:49.857Z,1.60
2022-12-08T21:38:18.528Z,1.75
2022-12-08T21:40:46.889Z,1.70
2022-12-08T21:43:15.267Z,1.52
2022-12-08T21:45:45.183Z,1.45
2022-12-08T21:48:13.742Z,1.75
2022-12-08T21:50:42.346Z,1.42
2022-12-08T21:53:10.849Z,1.63
2022-12-08T21:55:40.438Z,1.92
2022-12-08T21:58:11.883Z,1.10
2022-12-08T22:00:41.104Z,1.65
2022-12-08T22:03:15.515Z,1.65
2022-12-08T22:05:46.640Z,1.90
2022-12-08T22:08:15.505Z,1.77
2022-12-08T22:10:48.888Z,1.55
2022-12-08T22:13:17.483Z,2.05
2022-12-08T22:15:46.226Z,3.55
2022-12-08T22:18:16.489Z,1.58
2022-12-08T22:20:45.504Z,1.45
2022-12-08T22:23:14.862Z,2.40
2022-12-08T22:25:44.101Z,1.95
2022-12-08T22:28:12.977Z,1.60
2022-12-08T22:30:42.269Z,1.75
2022-12-08T22:33:13.269Z,2.03
2022-12-08T22:35:43.100Z,1.70
2022-12-08T22:38:12.485Z,1.20
2022-12-08T22:40:42.954Z,1.27
2022-12-08T22:43:11.659Z,1.42
2022-12-08T22:45:40.268Z,1.63
2022-12-08T22:48:09.010Z,1.77
2022-12-08T22:50:37.793Z,1.52
2022-12-08T22:53:07.672Z,1.95
2022-12-08T22:55:36.145Z,1.60
2022-12-08T22:58:04.512Z,1.33
2022-12-08T23:00:33.585Z,1.52
2022-12-08T23:03:03.734Z,1.60
2022-12-08T23:05:36.409Z,1.17
2022-12-08T23:08:08.803Z,1.63
2022-12-08T23:10:41.456Z,2.13
2022-12-08T23:13:10.663Z,2.08
2022-12-08T23:15:39.759Z,2.03
2022-12-08T23:18:08.580Z,1.90
2022-12-08T23:20:37.053Z,1.45
2022-12-08T23:23:05.433Z,1.77
2022-12-08T23:25:33.951Z,1.45
2022-12-08T23:28:04.090Z,1.60
2022-12-08T23:30:33.067Z,1.83
2022-12-08T23:33:01.796Z,1.95
2022-12-08T23:35:30.569Z,1.50
2022-12-08T23:37:58.871Z,1.30
2022-12-08T23:40:27.928Z,1.65
2022-12-08T23:42:56.485Z,2.05
2022-12-08T23:45:26.669Z,1.70
2022-12-08T23:47:56.546Z,2.10
2022-12-08T23:50:24.918Z,1.70
2022-12-08T23:52:53.405Z,1.65
2022-12-08T23:55:21.799Z,1.45
2022-12-08T23:57:50.165Z,1.65
